Terminal Aerodrome Forecast
Issued by NWS

Home | Current Version | Previous Version | Text Only | Print | Product List | Glossary On
Versions: 1 2 3 4 5 6 7 8 9 10 11 12 13 14 15 16 17 18 19 20
791
FTUS41 KCAR 200605 AAA
TAFHUL
TAF AMD
KHUL 200605Z 2006/2106 00000KT 5SM BR BKN015
     FM200700 00000KT 2SM BR OVC004
     FM201300 00000KT P6SM BKN002
     FM201500 03004KT P6SM BKN011
     FM201600 03004KT P6SM BKN022
     FM201800 03005KT P6SM BKN035
     FM202100 02006KT P6SM SCT060=

USA.gov is the U.S. government's official web portal to all federal, state and local government web resources and services.